createdAt,value
2022-10-23T00:00:56.724Z,75.90
2022-10-23T00:03:43.466Z,76.36
2022-10-23T00:06:31.463Z,76.20
2022-10-23T00:09:18.204Z,76.38
2022-10-23T00:12:05.639Z,75.60
2022-10-23T00:14:52.385Z,75.86
2022-10-23T00:17:39.209Z,76.32
2022-10-23T00:20:27.571Z,75.61
2022-10-23T00:23:14.341Z,76.08
2022-10-23T00:26:01.085Z,76.35
2022-10-23T00:28:47.853Z,76.08
2022-10-23T00:31:35.003Z,75.81
2022-10-23T00:34:22.080Z,75.65
2022-10-23T00:37:08.846Z,76.50
2022-10-23T00:39:55.604Z,76.40
2022-10-23T00:42:44.137Z,76.49
2022-10-23T00:45:39.712Z,75.70
2022-10-23T00:48:06.475Z,76.01
2022-10-23T00:50:33.482Z,75.55
2022-10-23T00:53:03.920Z,76.52
2022-10-23T00:55:32.577Z,75.53
2022-10-23T00:57:59.710Z,76.02
2022-10-23T01:00:40.335Z,76.45
2022-10-23T01:03:07.295Z,75.87
2022-10-23T01:05:50.170Z,75.45
2022-10-23T01:08:29.721Z,76.02
2022-10-23T01:11:10.020Z,76.02
2022-10-23T01:13:49.540Z,76.10
2022-10-23T01:16:31.772Z,76.10
2022-10-23T01:19:07.635Z,75.23
2022-10-23T01:21:43.500Z,75.38
2022-10-23T01:24:26.918Z,75.30
2022-10-23T01:27:14.791Z,75.32
2022-10-23T01:29:46.994Z,75.98
2022-10-23T01:32:19.971Z,75.83
2022-10-23T01:35:00.763Z,75.46
2022-10-23T01:37:34.452Z,75.56
2022-10-23T01:40:10.135Z,76.05
2022-10-23T01:42:43.923Z,75.33
2022-10-23T01:45:21.761Z,75.69
2022-10-23T01:47:50.756Z,75.12
2022-10-23T01:50:19.828Z,75.71
2022-10-23T01:52:49.178Z,75.63
2022-10-23T01:55:17.715Z,75.05
2022-10-23T01:57:46.219Z,75.53
2022-10-23T02:00:15.988Z,74.99
2022-10-23T02:02:53.344Z,75.48
2022-10-23T02:05:28.769Z,74.81
2022-10-23T02:07:58.010Z,74.96
2022-10-23T02:10:34.184Z,75.35
2022-10-23T02:13:33.237Z,75.06
2022-10-23T02:16:23.712Z,75.29
2022-10-23T02:18:59.108Z,74.95
2022-10-23T02:21:53.585Z,75.16
2022-10-23T02:24:28.493Z,74.86
2022-10-23T02:27:02.821Z,75.17
2022-10-23T02:29:35.303Z,74.60
2022-10-23T02:32:02.474Z,74.37
2022-10-23T02:34:29.386Z,74.32
2022-10-23T02:36:56.657Z,74.04
2022-10-23T02:39:27.674Z,74.68
2022-10-23T02:42:10.705Z,74.57
2022-10-23T02:44:43.832Z,74.46
2022-10-23T02:47:25.157Z,74.01
2022-10-23T02:50:02.616Z,73.83
2022-10-23T02:52:38.744Z,73.66
2022-10-23T02:55:05.734Z,73.60
2022-10-23T02:57:54.264Z,73.45
2022-10-23T03:00:22.942Z,73.30
2022-10-23T03:03:14.799Z,73.72
2022-10-23T03:05:44.925Z,73.40
2022-10-23T03:08:14.968Z,72.80
2022-10-23T03:10:42.580Z,73.28
2022-10-23T03:13:10.963Z,72.81
2022-10-23T03:15:42.354Z,72.51
2022-10-23T03:18:12.650Z,72.73
2022-10-23T03:20:41.147Z,72.16
2022-10-23T03:23:11.892Z,72.69
2022-10-23T03:25:38.728Z,72.26
2022-10-23T03:28:05.860Z,71.98
2022-10-23T03:30:34.885Z,72.28
2022-10-23T03:33:01.739Z,72.14
2022-10-23T03:35:28.515Z,71.51
2022-10-23T03:37:55.437Z,71.40
2022-10-23T03:40:24.348Z,71.68
2022-10-23T03:42:51.195Z,71.77
2022-10-23T03:45:19.496Z,71.09
2022-10-23T03:47:48.648Z,71.20
2022-10-23T03:50:15.594Z,71.66
2022-10-23T03:52:42.783Z,71.08
2022-10-23T03:55:12.503Z,70.41
2022-10-23T03:57:39.310Z,71.10
2022-10-23T04:00:07.136Z,70.43
2022-10-23T04:02:43.708Z,71.05
2022-10-23T04:05:11.529Z,70.96
2022-10-23T04:07:40.380Z,70.74
2022-10-23T04:10:07.621Z,70.02
2022-10-23T04:12:35.443Z,70.50
2022-10-23T04:15:02.257Z,69.68
2022-10-23T04:17:29.105Z,69.72
2022-10-23T04:19:56.189Z,69.92
2022-10-23T04:22:25.958Z,70.39
2022-10-23T04:24:54.693Z,69.76
2022-10-23T04:27:21.439Z,69.42
2022-10-23T04:29:49.386Z,69.72
2022-10-23T04:32:16.371Z,69.89
2022-10-23T04:34:44.295Z,69.11
2022-10-23T04:37:11.036Z,69.13
2022-10-23T04:39:38.391Z,69.85
2022-10-23T04:42:05.220Z,69.04
2022-10-23T04:44:31.978Z,69.54
2022-10-23T04:46:58.847Z,69.74
2022-10-23T04:49:25.713Z,68.75
2022-10-23T04:52:17.740Z,69.36
2022-10-23T04:55:05.153Z,69.62
2022-10-23T04:57:41.379Z,68.81
2022-10-23T05:00:12.515Z,69.21
2022-10-23T05:02:53.976Z,69.39
2022-10-23T05:05:21.844Z,68.51
2022-10-23T05:08:08.019Z,69.30
2022-10-23T05:10:49.744Z,68.47
2022-10-23T05:13:20.320Z,68.61
2022-10-23T05:15:48.594Z,69.16
2022-10-23T05:18:30.901Z,69.25
2022-10-23T05:21:04.257Z,68.84
2022-10-23T05:23:34.678Z,68.64
2022-10-23T05:26:03.544Z,68.64
2022-10-23T05:28:31.657Z,67.79
2022-10-23T05:31:01.049Z,68.50
2022-10-23T05:33:30.718Z,67.93
2022-10-23T05:35:58.787Z,67.84
2022-10-23T05:38:27.768Z,68.60
2022-10-23T05:40:55.204Z,68.28
2022-10-23T05:43:23.157Z,67.53
2022-10-23T05:45:55.655Z,68.16
2022-10-23T05:48:33.620Z,68.45
2022-10-23T05:51:25.084Z,68.32
2022-10-23T05:53:59.777Z,67.45
2022-10-23T05:56:32.288Z,67.60
2022-10-23T05:59:08.305Z,68.26
2022-10-23T06:01:49.047Z,67.97
2022-10-23T06:04:21.752Z,67.06
2022-10-23T06:07:04.334Z,67.69
2022-10-23T06:09:31.582Z,67.32
2022-10-23T06:11:58.833Z,67.15
2022-10-23T06:14:25.636Z,66.75
2022-10-23T06:16:53.767Z,67.31
2022-10-23T06:19:21.211Z,66.85
2022-10-23T06:21:52.185Z,66.71
2022-10-23T06:24:21.388Z,66.53
2022-10-23T06:26:59.592Z,67.19
2022-10-23T06:29:47.243Z,67.36
2022-10-23T06:32:14.111Z,66.57
2022-10-23T06:34:46.275Z,66.62
2022-10-23T06:37:13.080Z,66.77
2022-10-23T06:39:51.382Z,66.88
2022-10-23T06:42:33.738Z,66.72
2022-10-23T06:45:23.677Z,67.26
2022-10-23T06:47:53.395Z,66.57
2022-10-23T06:50:49.063Z,66.97
2022-10-23T06:53:20.299Z,67.28
2022-10-23T06:55:55.305Z,66.88
2022-10-23T06:58:22.804Z,66.68
2022-10-23T07:01:22.089Z,66.16
2022-10-23T07:03:49.017Z,67.50
2022-10-23T07:06:19.811Z,66.66
2022-10-23T07:08:46.713Z,66.48
2022-10-23T07:11:48.824Z,67.42
2022-10-23T07:14:15.699Z,66.14
2022-10-23T07:16:42.888Z,67.07
2022-10-23T07:19:30.322Z,65.92
2022-10-23T07:22:20.090Z,66.00
2022-10-23T07:25:29.293Z,66.03
2022-10-23T07:28:20.028Z,66.97
2022-10-23T07:31:17.288Z,66.64
2022-10-23T07:34:24.916Z,66.07
2022-10-23T07:37:29.484Z,66.46
2022-10-23T07:40:18.072Z,66.76
2022-10-23T07:43:05.229Z,66.06
2022-10-23T07:45:52.005Z,66.51
2022-10-23T07:48:50.992Z,66.40
2022-10-23T07:51:37.919Z,66.18
2022-10-23T07:54:24.832Z,65.92
2022-10-23T07:57:31.802Z,65.55
2022-10-23T08:00:30.032Z,65.21
2022-10-23T08:03:27.571Z,66.14
2022-10-23T08:06:15.270Z,66.42
2022-10-23T08:09:06.189Z,65.54
2022-10-23T08:11:58.036Z,65.29
2022-10-23T08:14:47.760Z,65.49
2022-10-23T08:17:34.685Z,65.36
2022-10-23T08:20:41.221Z,65.11
2022-10-23T08:23:30.140Z,65.37
2022-10-23T08:26:18.955Z,66.05
2022-10-23T08:29:05.651Z,65.14
2022-10-23T08:31:52.444Z,65.77
2022-10-23T08:34:45.244Z,65.79
2022-10-23T08:37:32.030Z,65.17
2022-10-23T08:40:18.925Z,65.04
2022-10-23T08:43:34.443Z,65.10
2022-10-23T08:46:39.400Z,65.60
2022-10-23T08:50:10.552Z,65.35
2022-10-23T08:53:29.619Z,65.41
2022-10-23T08:56:32.125Z,65.39
2022-10-23T08:59:52.428Z,65.33
2022-10-23T09:02:47.933Z,64.75
2022-10-23T09:05:56.063Z,65.33
2022-10-23T09:08:51.872Z,65.50
2022-10-23T09:12:23.275Z,64.45
2022-10-23T09:15:34.301Z,64.45
2022-10-23T09:18:31.574Z,64.73
2022-10-23T09:21:18.511Z,65.32
2022-10-23T09:24:05.214Z,64.87
2022-10-23T09:26:52.050Z,64.88
2022-10-23T09:29:41.448Z,64.08
2022-10-23T09:32:28.174Z,64.16
2022-10-23T09:35:15.396Z,64.88
2022-10-23T09:38:06.543Z,64.10
2022-10-23T09:40:58.987Z,64.17
2022-10-23T09:43:45.825Z,64.38
2022-10-23T09:46:32.768Z,63.98
2022-10-23T09:49:19.479Z,64.17
2022-10-23T09:52:32.298Z,63.58
2022-10-23T09:55:21.421Z,64.09
2022-10-23T09:58:08.139Z,64.08
2022-10-23T10:00:55.488Z,63.31
2022-10-23T10:03:58.238Z,63.24
2022-10-23T10:06:51.860Z,63.67
2022-10-23T10:09:38.567Z,62.82
2022-10-23T10:12:25.312Z,63.10
2022-10-23T10:15:53.589Z,62.75
2022-10-23T10:19:00.152Z,63.14
2022-10-23T10:22:28.378Z,62.91
2022-10-23T10:25:23.898Z,62.52
2022-10-23T10:28:22.302Z,62.44
2022-10-23T10:31:39.480Z,61.92
2022-10-23T10:34:30.943Z,61.99
2022-10-23T10:37:29.906Z,61.94
2022-10-23T10:40:44.696Z,62.31
2022-10-23T10:43:55.928Z,62.23
2022-10-23T10:46:48.919Z,61.83
2022-10-23T10:49:55.737Z,61.79
2022-10-23T10:53:16.948Z,61.78
2022-10-23T10:59:07.853Z,61.80
2022-10-23T11:02:03.144Z,61.42
2022-10-23T11:05:00.924Z,61.68
2022-10-23T11:07:57.168Z,61.44
2022-10-23T11:10:43.908Z,61.24
2022-10-23T11:13:57.080Z,60.74
2022-10-23T11:16:54.944Z,61.06
2022-10-23T11:20:31.026Z,61.11
2022-10-23T11:23:42.243Z,60.72
2022-10-23T11:27:00.304Z,60.95
2022-10-23T11:30:18.071Z,60.89
2022-10-23T11:33:27.848Z,60.78
2022-10-23T11:36:26.502Z,60.49
2022-10-23T11:39:13.261Z,60.18
2022-10-23T11:42:15.240Z,60.19
2022-10-23T11:45:09.931Z,60.25
2022-10-23T11:48:02.908Z,59.44
2022-10-23T11:51:09.164Z,59.45
2022-10-23T11:53:55.836Z,59.64
2022-10-23T11:56:26.580Z,59.37
2022-10-23T11:59:18.363Z,59.27
2022-10-23T12:02:06.195Z,59.06
2022-10-23T12:05:10.595Z,59.22
2022-10-23T12:08:00.426Z,58.90
2022-10-23T12:10:51.495Z,58.77
2022-10-23T12:13:56.652Z,58.73
2022-10-23T12:16:54.656Z,58.72
2022-10-23T12:19:43.677Z,58.56
2022-10-23T12:22:31.605Z,58.64
2022-10-23T12:25:35.568Z,58.45
2022-10-23T12:28:33.037Z,58.16
2022-10-23T12:31:29.099Z,58.36
2022-10-23T12:34:36.040Z,58.35
2022-10-23T12:37:28.693Z,57.98
2022-10-23T12:40:16.529Z,57.84
2022-10-23T12:43:11.721Z,57.51
2022-10-23T12:46:00.788Z,57.67
2022-10-23T12:48:47.568Z,57.57
2022-10-23T12:51:43.231Z,57.65
2022-10-23T12:54:38.522Z,57.70
2022-10-23T12:58:01.626Z,57.61
2022-10-23T13:00:48.330Z,57.34
2022-10-23T13:03:35.039Z,57.37
2022-10-23T13:06:23.500Z,57.20
2022-10-23T13:09:10.660Z,57.28
2022-10-23T13:12:10.463Z,57.09
2022-10-23T13:15:01.295Z,56.83
2022-10-23T13:18:05.185Z,57.06
2022-10-23T13:20:55.058Z,57.35
2022-10-23T13:23:52.431Z,57.13
2022-10-23T13:27:07.691Z,57.17
2022-10-23T13:29:54.612Z,57.00
2022-10-23T13:32:46.993Z,57.28
2022-10-23T13:35:42.012Z,56.82
2022-10-23T13:38:29.861Z,56.74
2022-10-23T13:41:19.084Z,56.77
2022-10-23T13:44:07.756Z,56.73
2022-10-23T13:46:54.474Z,56.15
2022-10-23T13:49:41.177Z,56.93
2022-10-23T13:52:32.698Z,57.02
2022-10-23T13:55:19.411Z,56.86
2022-10-23T13:58:06.096Z,56.99
2022-10-23T14:00:52.828Z,56.95
2022-10-23T14:03:39.613Z,56.95
2022-10-23T14:06:26.621Z,56.95
2022-10-23T14:09:13.399Z,57.08
2022-10-23T14:12:00.615Z,57.12
2022-10-23T14:14:47.405Z,57.08
2022-10-23T14:17:34.112Z,57.25
2022-10-23T14:20:24.434Z,57.10
2022-10-23T14:23:13.875Z,56.77
2022-10-23T14:26:00.741Z,57.29
2022-10-23T14:28:47.577Z,57.50
2022-10-23T14:31:37.472Z,57.14
2022-10-23T14:34:24.165Z,57.01
2022-10-23T14:37:10.879Z,57.07
2022-10-23T14:39:57.603Z,57.69
2022-10-23T14:42:44.652Z,57.42
2022-10-23T14:45:31.694Z,57.24
2022-10-23T14:48:18.476Z,57.47
2022-10-23T14:51:08.361Z,57.60
2022-10-23T14:53:56.444Z,57.73
2022-10-23T14:56:45.969Z,57.71
2022-10-23T14:59:32.771Z,57.79
2022-10-23T15:02:19.547Z,57.70
2022-10-23T15:05:06.324Z,57.70
2022-10-23T15:07:53.019Z,57.80
2022-10-23T15:10:39.744Z,57.88
2022-10-23T15:13:26.649Z,58.04
2022-10-23T15:16:28.263Z,57.72
2022-10-23T15:19:18.207Z,57.87
2022-10-23T15:22:06.956Z,58.09
2022-10-23T15:24:53.709Z,58.36
2022-10-23T15:27:40.635Z,58.08
2022-10-23T15:30:27.969Z,58.34
2022-10-23T15:33:19.122Z,58.63
2022-10-23T15:36:06.856Z,58.85
2022-10-23T15:38:53.603Z,58.47
2022-10-23T15:41:39.600Z,58.74
2022-10-23T15:44:07.524Z,58.99
2022-10-23T15:46:34.818Z,58.94
2022-10-23T15:49:01.898Z,58.71
2022-10-23T15:51:28.712Z,59.13
2022-10-23T15:53:57.114Z,59.17
2022-10-23T15:56:24.762Z,58.60
2022-10-23T15:58:51.767Z,59.31
2022-10-23T16:01:18.872Z,58.71
2022-10-23T16:03:46.067Z,58.95
2022-10-23T16:06:16.422Z,58.63
2022-10-23T16:08:46.170Z,59.33
2022-10-23T16:11:30.876Z,58.72
2022-10-23T16:13:59.144Z,58.77
2022-10-23T16:16:27.745Z,59.11
2022-10-23T16:18:55.013Z,59.57
2022-10-23T16:21:25.842Z,59.70
2022-10-23T16:23:54.103Z,59.62
2022-10-23T16:26:22.369Z,59.42
2022-10-23T16:28:53.873Z,58.90
2022-10-23T16:31:21.996Z,59.55
2022-10-23T16:33:49.473Z,59.94
2022-10-23T16:36:17.505Z,59.68
2022-10-23T16:39:08.659Z,60.16
2022-10-23T16:41:54.081Z,60.02
2022-10-23T16:44:23.304Z,59.97
2022-10-23T16:46:58.112Z,59.98
2022-10-23T16:49:25.094Z,60.24
2022-10-23T16:51:51.863Z,59.55
2022-10-23T16:54:38.609Z,59.89
2022-10-23T16:57:25.390Z,60.06
2022-10-23T17:00:12.072Z,60.60
2022-10-23T17:02:58.784Z,59.54
2022-10-23T17:05:45.477Z,60.64
2022-10-23T17:08:32.189Z,60.62
2022-10-23T17:11:28.899Z,59.75
2022-10-23T17:14:17.320Z,60.84
2022-10-23T17:16:47.857Z,60.68
2022-10-23T17:19:39.798Z,60.00
2022-10-23T17:22:24.343Z,59.82
2022-10-23T17:25:11.050Z,59.95
2022-10-23T17:27:57.749Z,60.39
2022-10-23T17:30:44.500Z,60.17
2022-10-23T17:33:31.230Z,61.08
2022-10-23T17:36:22.192Z,60.97
2022-10-23T17:39:09.513Z,61.33
2022-10-23T17:41:57.184Z,60.98
2022-10-23T17:44:43.978Z,61.59
2022-10-23T17:47:30.679Z,61.36
2022-10-23T17:50:17.362Z,61.08
2022-10-23T17:53:04.057Z,61.59
2022-10-23T17:55:51.107Z,61.98
2022-10-23T17:58:37.807Z,61.26
2022-10-23T18:01:27.022Z,61.32
2022-10-23T18:04:15.212Z,61.41
2022-10-23T18:07:05.141Z,61.21
2022-10-23T18:09:51.832Z,61.86
2022-10-23T18:12:38.790Z,61.64
2022-10-23T18:15:26.129Z,61.99
2022-10-23T18:18:12.817Z,61.00
2022-10-23T18:21:00.265Z,61.86
2022-10-23T18:23:48.936Z,61.42
2022-10-23T18:26:47.190Z,61.69
2022-10-23T18:29:35.643Z,62.33
2022-10-23T18:32:22.392Z,61.22
2022-10-23T18:35:09.294Z,62.35
2022-10-23T18:37:56.015Z,61.53
2022-10-23T18:40:42.732Z,61.44
2022-10-23T18:43:43.285Z,62.03
2022-10-23T18:46:35.168Z,62.26
2022-10-23T18:49:22.455Z,62.83
2022-10-23T18:52:10.023Z,62.28
2022-10-23T18:54:56.789Z,62.50
2022-10-23T18:57:44.196Z,62.91
2022-10-23T19:00:31.991Z,62.54
2022-10-23T19:03:18.703Z,62.74
2022-10-23T19:06:06.754Z,61.86
2022-10-23T19:08:57.095Z,62.29
2022-10-23T19:11:45.712Z,62.93
2022-10-23T19:14:32.909Z,62.65
2022-10-23T19:17:33.710Z,62.94
2022-10-23T19:20:29.489Z,63.18
2022-10-23T19:23:17.128Z,62.13
2022-10-23T19:26:05.075Z,63.38
2022-10-23T19:31:45.792Z,62.50
2022-10-23T19:34:32.510Z,63.26
2022-10-23T19:37:19.268Z,62.64
2022-10-23T19:40:05.984Z,62.89
2022-10-23T19:42:57.587Z,63.80
2022-10-23T19:45:44.292Z,62.85
2022-10-23T19:48:31.096Z,63.41
2022-10-23T19:51:17.923Z,63.68
2022-10-23T19:54:04.636Z,63.95
2022-10-23T19:56:51.476Z,63.60
2022-10-23T19:59:38.592Z,62.58
2022-10-23T20:02:25.578Z,63.66
2022-10-23T20:05:12.593Z,62.69
2022-10-23T20:07:59.376Z,63.87
2022-10-23T20:10:46.163Z,63.32
2022-10-23T20:13:32.911Z,63.07
2022-10-23T20:16:19.614Z,63.15
2022-10-23T20:19:07.282Z,63.10
2022-10-23T20:21:59.243Z,62.87
2022-10-23T20:24:46.424Z,63.11
2022-10-23T20:30:24.133Z,63.10
2022-10-23T20:33:10.867Z,63.49
2022-10-23T20:36:01.889Z,63.83
2022-10-23T20:38:48.588Z,63.84
2022-10-23T20:41:35.325Z,63.98
2022-10-23T20:44:22.241Z,64.37
2022-10-23T20:47:09.617Z,64.17
2022-10-23T20:49:56.405Z,64.31
2022-10-23T20:52:43.142Z,64.44
2022-10-23T20:55:30.061Z,64.47
2022-10-23T20:58:16.828Z,63.80
2022-10-23T21:01:03.629Z,63.68
2022-10-23T21:03:50.444Z,64.30
2022-10-23T21:06:57.525Z,64.30
2022-10-23T21:09:45.413Z,64.94
2022-10-23T21:12:32.403Z,63.93
2022-10-23T21:15:19.144Z,64.41
2022-10-23T21:18:14.567Z,64.64
2022-10-23T21:21:12.768Z,64.21
2022-10-23T21:23:59.619Z,64.23
2022-10-23T21:26:48.331Z,64.52
2022-10-23T21:29:35.381Z,64.90
2022-10-23T21:32:22.154Z,64.08
2022-10-23T21:35:08.867Z,64.85
2022-10-23T21:37:55.586Z,64.30
2022-10-23T21:40:42.861Z,64.50
2022-10-23T21:43:29.580Z,64.66
2022-10-23T21:46:16.269Z,64.96
2022-10-23T21:49:03.396Z,64.36
2022-10-23T21:51:56.679Z,64.87
2022-10-23T21:54:43.474Z,64.97
2022-10-23T21:57:34.433Z,64.70
2022-10-23T22:00:21.152Z,65.21
2022-10-23T22:03:08.235Z,64.34
2022-10-23T22:05:54.973Z,64.96
2022-10-23T22:08:41.699Z,65.04
2022-10-23T22:11:28.527Z,64.73
2022-10-23T22:14:15.677Z,65.13
2022-10-23T22:17:02.420Z,64.88
2022-10-23T22:19:49.179Z,64.81
2022-10-23T22:22:35.876Z,64.46
2022-10-23T22:25:22.635Z,64.70
2022-10-23T22:28:09.359Z,65.22
2022-10-23T22:30:56.838Z,64.72
2022-10-23T22:33:43.548Z,64.87
2022-10-23T22:36:30.353Z,64.97
2022-10-23T22:39:17.116Z,65.36
2022-10-23T22:42:03.851Z,65.31
2022-10-23T22:44:50.569Z,65.78
2022-10-23T22:47:37.221Z,65.39
2022-10-23T22:50:24.253Z,65.35
2022-10-23T22:53:11.861Z,65.58
2022-10-23T22:56:02.628Z,65.40
2022-10-23T22:58:49.340Z,65.64
2022-10-23T23:01:41.737Z,65.24
2022-10-23T23:04:43.806Z,65.43
2022-10-23T23:07:32.536Z,65.31
2022-10-23T23:10:19.226Z,65.30
2022-10-23T23:13:05.925Z,65.58
2022-10-23T23:15:53.091Z,65.63
2022-10-23T23:18:40.138Z,65.39
2022-10-23T23:21:26.842Z,65.58
2022-10-23T23:24:14.151Z,65.64
2022-10-23T23:27:01.018Z,65.80
2022-10-23T23:29:47.732Z,65.78
2022-10-23T23:32:34.472Z,65.85
2022-10-23T23:35:21.906Z,65.57
2022-10-23T23:38:08.662Z,65.65
2022-10-23T23:40:55.532Z,65.66
2022-10-23T23:48:50.464Z,65.58
2022-10-23T23:51:40.122Z,65.94
2022-10-23T23:54:26.856Z,65.80
2022-10-23T23:57:16.592Z,65.93
